Time;durP1;ratioP1;P1;durP2;ratioP2;P2;SDS_P1;SDS_P2;PMS_P1;PMS_P2;Temp;Humidity;BMP_temperature;BMP_pressure;BME280_temperature;BME280_humidity;BME280_pressure;Samples;Min_cycle;Max_cycle;Signal;HPM_P1;HPM_P2
2021/12/01 00:02:36;;;;;;;1.00;0.52;;;;;;;0.08;100.00;96958.41;4983692;28;20092;-62
2021/12/01 00:05:27;;;;;;;1.67;0.68;;;;;;;0.04;100.00;96933.34;4982006;28;20116;-61
2021/12/01 00:08:13;;;;;;;0.95;0.60;;;;;;;0.08;100.00;96927.16;4979006;28;20057;-65
2021/12/01 00:10:57;;;;;;;0.90;0.60;;;;;;;0.12;100.00;96928.81;4978551;28;20053;-60
2021/12/01 00:13:42;;;;;;;1.90;0.90;;;;;;;-0.14;100.00;96934.63;4976258;28;20419;-64
2021/12/01 00:16:27;;;;;;;2.85;0.70;;;;;;;-0.20;100.00;96939.97;4983088;28;20537;-65
2021/12/01 00:19:12;;;;;;;2.83;0.55;;;;;;;-0.26;100.00;96939.25;4975588;28;20053;-61
2021/12/01 00:21:57;;;;;;;1.38;0.70;;;;;;;-0.38;100.00;96924.78;4987357;28;20569;-59
2021/12/01 00:24:41;;;;;;;1.30;0.75;;;;;;;-0.27;100.00;96930.59;4986276;28;20136;-55
2021/12/01 00:27:26;;;;;;;2.85;0.80;;;;;;;-0.24;100.00;96934.84;4967614;28;20089;-62
2021/12/01 00:30:11;;;;;;;1.13;0.52;;;;;;;-0.28;100.00;96925.41;4981385;28;20053;-59
2021/12/01 00:32:55;;;;;;;0.82;0.50;;;;;;;-0.20;100.00;96937.38;4981564;28;20493;-65
2021/12/01 00:35:40;;;;;;;1.67;0.80;;;;;;;-0.21;100.00;96913.97;4988863;28;20518;-61
2021/12/01 00:38:26;;;;;;;1.42;0.75;;;;;;;-0.24;100.00;96930.53;4972155;28;20058;-55
2021/12/01 00:41:12;;;;;;;1.60;0.80;;;;;;;-0.29;100.00;96928.91;4973334;28;20399;-54
2021/12/01 00:43:57;;;;;;;1.45;0.70;;;;;;;-0.23;100.00;96920.97;4988904;28;20580;-54
2021/12/01 00:46:53;;;;;;;2.17;0.70;;;;;;;-0.28;100.00;96934.09;4987813;28;20101;-61
2021/12/01 00:49:37;;;;;;;1.27;0.80;;;;;;;-0.21;100.00;96925.25;4988351;28;20410;-54
2021/12/01 00:52:22;;;;;;;3.17;0.70;;;;;;;-0.14;100.00;96925.97;4972694;28;20105;-54
2021/12/01 00:55:08;;;;;;;2.58;0.63;;;;;;;-0.12;100.00;96929.38;4987265;28;20473;-57
2021/12/01 00:57:53;;;;;;;4.03;0.98;;;;;;;-0.32;100.00;96937.66;4969933;28;20053;-58
2021/12/01 01:00:40;;;;;;;0.93;0.60;;;;;;;-0.13;100.00;96945.88;4969136;28;20486;-65
2021/12/01 01:03:26;;;;;;;1.30;0.50;;;;;;;-0.22;100.00;96943.50;4987338;28;20124;-58
2021/12/01 01:06:12;;;;;;;1.95;0.75;;;;;;;-0.19;100.00;96961.66;4972260;28;20092;-60
2021/12/01 01:08:56;;;;;;;2.55;0.60;;;;;;;-0.12;100.00;96961.47;4987564;28;20057;-57
2021/12/01 01:18:02;;;;;;;2.25;0.68;;;;;;;-0.18;100.00;96945.16;4984993;28;20169;-60
2021/12/01 01:20:46;;;;;;;3.15;0.70;;;;;;;-0.17;100.00;96950.31;5008110;28;20111;-59
2021/12/01 01:23:33;;;;;;;1.50;0.68;;;;;;;-0.21;100.00;96950.41;5004612;28;20041;-59
2021/12/01 01:26:21;;;;;;;2.05;0.50;;;;;;;-0.26;100.00;96949.66;4988360;28;20149;-57
2021/12/01 01:29:11;;;;;;;1.77;0.88;;;;;;;-0.18;100.00;96947.75;4987463;28;20419;-59
2021/12/01 01:31:58;;;;;;;1.20;0.77;;;;;;;-0.15;100.00;96937.28;4985023;28;20065;-60
2021/12/01 01:34:42;;;;;;;1.50;0.60;;;;;;;-0.44;100.00;96944.88;4984103;28;20057;-60
2021/12/01 01:37:27;;;;;;;1.75;0.73;;;;;;;-0.28;100.00;96962.72;4986600;28;20924;-59
2021/12/01 01:40:14;;;;;;;3.40;0.88;;;;;;;-0.23;100.00;96941.81;4978891;28;20041;-60
2021/12/01 01:42:58;;;;;;;1.60;0.70;;;;;;;0.08;100.00;96971.44;4984072;28;20060;-61
2021/12/01 01:45:43;;;;;;;1.98;0.80;;;;;;;-0.20;100.00;96950.38;4988922;28;20108;-58
2021/12/01 01:48:32;;;;;;;1.75;0.77;;;;;;;0.03;100.00;96962.84;4991659;28;20103;-60
2021/12/01 01:51:20;;;;;;;2.08;1.10;;;;;;;-0.09;100.00;96955.34;5005789;28;20133;-61
2021/12/01 01:54:06;;;;;;;2.03;0.68;;;;;;;-0.11;100.00;96949.31;4996916;28;20061;-63
2021/12/01 01:56:51;;;;;;;1.30;0.68;;;;;;;-0.13;100.00;96954.56;4986213;28;20057;-62
2021/12/01 01:59:36;;;;;;;1.20;0.70;;;;;;;-0.24;100.00;96953.94;4985509;28;20140;-61
2021/12/01 02:02:20;;;;;;;;;;;;;;;-0.11;100.00;96971.00;4971847;28;20061;-59
2021/12/01 02:05:04;;;;;;;1.08;0.68;;;;;;;-0.05;100.00;96975.19;5007648;28;20365;-60
2021/12/01 02:07:52;;;;;;;1.92;0.60;;;;;;;0.07;100.00;96981.88;5006232;28;20053;-65
2021/12/01 02:10:37;;;;;;;1.73;0.65;;;;;;;-0.03;100.00;96974.28;4980842;28;20097;-62
2021/12/01 02:13:22;;;;;;;2.60;0.68;;;;;;;-0.09;100.00;96968.34;4965788;28;20081;-65
2021/12/01 02:16:09;;;;;;;1.50;0.60;;;;;;;0.02;100.00;96979.38;4999655;28;20089;-64
2021/12/01 02:18:56;;;;;;;2.95;0.60;;;;;;;-0.04;100.00;96979.50;4993069;28;20533;-63
2021/12/01 02:21:41;;;;;;;1.17;0.77;;;;;;;-0.17;100.00;96967.69;4996893;28;20363;-62
2021/12/01 02:24:26;;;;;;;2.63;0.63;;;;;;;-0.29;100.00;96970.56;4976736;28;20078;-61
2021/12/01 02:27:13;;;;;;;2.42;0.70;;;;;;;-0.33;100.00;96987.13;4976503;28;20058;-63
2021/12/01 02:29:58;;;;;;;0.93;0.70;;;;;;;-0.24;100.00;96985.19;4987608;28;20100;-61
2021/12/01 02:32:43;;;;;;;2.78;0.80;;;;;;;-0.35;100.00;96981.13;4984550;28;20100;-63
2021/12/01 02:35:28;;;;;;;1.50;0.70;;;;;;;-0.38;100.00;96987.25;4987633;28;20109;-62
2021/12/01 02:38:12;;;;;;;4.05;0.82;;;;;;;-0.20;100.00;96989.44;4985015;28;20049;-63
2021/12/01 02:40:57;;;;;;;2.08;0.70;;;;;;;-0.23;100.00;96981.69;4986188;28;20128;-62
2021/12/01 02:43:44;;;;;;;2.15;0.68;;;;;;;-0.12;100.00;96981.44;4987658;28;20053;-63
2021/12/01 02:46:29;;;;;;;3.97;0.77;;;;;;;-0.21;100.00;96979.91;4985421;28;20115;-65
2021/12/01 02:49:20;;;;;;;1.88;1.10;;;;;;;-0.14;100.00;97004.06;4997480;28;20084;-63
2021/12/01 02:52:05;;;;;;;4.93;1.20;;;;;;;-0.24;100.00;96997.34;5004019;28;20108;-63
2021/12/01 02:54:51;;;;;;;2.78;0.80;;;;;;;-0.23;100.00;97010.31;5005901;28;20414;-62
2021/12/01 02:57:46;;;;;;;1.23;0.55;;;;;;;-0.12;100.00;96997.91;4994802;28;20078;-62
2021/12/01 03:00:31;;;;;;;1.63;0.70;;;;;;;-0.31;100.00;97003.59;4965948;28;20490;-66
2021/12/01 03:03:16;;;;;;;;;;;;;;;-0.49;100.00;96990.94;4999314;28;20065;-62
2021/12/01 03:06:03;;;;;;;1.00;0.60;;;;;;;-0.37;100.00;97003.69;4970741;28;20286;-61
2021/12/01 03:08:48;;;;;;;5.35;1.10;;;;;;;-0.39;100.00;96995.09;4986756;28;20056;-64
2021/12/01 03:11:35;;;;;;;2.30;0.80;;;;;;;-0.44;100.00;96996.91;4985448;28;20057;-61
2021/12/01 03:14:22;;;;;;;1.88;0.80;;;;;;;-0.25;100.00;97006.03;4985092;28;20061;-66
2021/12/01 03:17:06;;;;;;;2.50;0.82;;;;;;;-0.25;100.00;97006.91;4984057;28;20056;-62
2021/12/01 03:19:51;;;;;;;2.58;1.10;;;;;;;-0.20;100.00;96999.84;4983323;28;20112;-58
2021/12/01 03:22:35;;;;;;;2.38;0.90;;;;;;;-0.11;100.00;97017.84;4971617;28;20084;-64
2021/12/01 03:25:22;;;;;;;2.13;1.00;;;;;;;-0.19;100.00;97003.31;4972997;28;20050;-68
2021/12/01 03:28:08;;;;;;;1.58;0.70;;;;;;;-0.10;100.00;97013.50;4985350;28;20057;-65
2021/12/01 03:30:54;;;;;;;2.40;0.90;;;;;;;-0.26;100.00;96996.53;4987065;28;20561;-64
2021/12/01 03:33:39;;;;;;;1.60;0.70;;;;;;;-0.39;100.00;97013.31;4981823;28;20533;-65
2021/12/01 03:36:24;;;;;;;2.47;0.80;;;;;;;-0.27;100.00;97016.47;4989164;28;20081;-62
2021/12/01 03:39:08;;;;;;;1.48;0.90;;;;;;;-0.36;100.00;97013.22;4987920;28;20148;-60
2021/12/01 03:41:53;;;;;;;1.85;1.02;;;;;;;-0.34;100.00;97024.47;4988935;28;20053;-63
2021/12/01 03:44:38;;;;;;;2.20;0.88;;;;;;;-0.19;100.00;97022.38;4971452;28;20630;-56
2021/12/01 03:47:25;;;;;;;1.73;0.70;;;;;;;-0.13;100.00;97021.38;4976735;28;20419;-57
2021/12/01 03:50:10;;;;;;;2.28;0.77;;;;;;;-0.39;100.00;97026.31;4989981;28;20442;-59
2021/12/01 03:52:55;;;;;;;2.60;1.00;;;;;;;-0.57;100.00;97019.75;4988927;28;20472;-59
2021/12/01 03:55:40;;;;;;;1.85;0.80;;;;;;;-0.50;100.00;97023.94;4990275;28;20054;-63
2021/12/01 03:58:24;;;;;;;1.30;0.70;;;;;;;-0.63;100.00;97022.47;4988453;28;20520;-67
2021/12/01 04:01:12;;;;;;;4.57;0.90;;;;;;;-0.52;100.00;97024.84;4988460;28;20316;-60
2021/12/01 04:03:58;;;;;;;1.35;0.80;;;;;;;-0.30;100.00;97039.13;4989181;28;20105;-58
2021/12/01 04:06:43;;;;;;;2.20;1.05;;;;;;;-0.49;100.00;97030.84;4989114;28;20150;-68
2021/12/01 04:09:29;;;;;;;;;;;;;;;-0.42;100.00;97035.03;4976839;28;20469;-64
2021/12/01 04:12:18;;;;;;;2.10;0.90;;;;;;;-0.47;100.00;97034.25;4973793;28;19925;-63
2021/12/01 04:15:04;;;;;;;1.95;0.90;;;;;;;-0.48;100.00;97040.38;4989279;28;20081;-65
2021/12/01 04:17:49;;;;;;;2.78;1.02;;;;;;;-0.40;100.00;97048.88;4997907;28;20044;-64
2021/12/01 04:20:34;;;;;;;1.73;0.80;;;;;;;-0.30;100.00;97046.94;5022328;28;20421;-62
2021/12/01 04:23:19;;;;;;;1.65;0.80;;;;;;;-0.44;100.00;97047.22;5008116;28;20170;-64
2021/12/01 04:26:04;;;;;;;2.10;1.17;;;;;;;-0.34;100.00;97038.34;4986332;28;20425;-68
2021/12/01 04:28:50;;;;;;;2.40;0.88;;;;;;;-0.23;100.00;97048.53;4988358;28;20056;-64
2021/12/01 04:31:38;;;;;;;3.72;0.80;;;;;;;-0.37;100.00;97050.53;4976992;28;20109;-63
2021/12/01 04:34:24;;;;;;;2.50;1.00;;;;;;;-0.43;100.00;97043.72;5001225;28;20073;-62
2021/12/01 04:37:08;;;;;;;2.00;0.90;;;;;;;-0.51;100.00;97050.00;4990151;28;20140;-62
2021/12/01 04:39:54;;;;;;;3.15;1.00;;;;;;;-0.30;100.00;97057.34;4987731;28;20060;-66
2021/12/01 04:42:39;;;;;;;3.75;1.25;;;;;;;-0.30;100.00;97047.81;4985217;28;20081;-64
2021/12/01 04:45:25;;;;;;;1.60;0.77;;;;;;;-0.40;100.00;97051.47;4967878;28;20061;-61
2021/12/01 04:48:10;;;;;;;2.70;0.98;;;;;;;-0.46;100.00;97051.63;4979930;28;20183;-64
2021/12/01 04:50:56;;;;;;;2.28;0.88;;;;;;;-0.43;100.00;97054.13;4989223;28;20060;-60
2021/12/01 04:53:40;;;;;;;2.03;1.00;;;;;;;-0.16;100.00;97057.88;4988884;28;20528;-59
2021/12/01 04:56:25;;;;;;;4.82;1.23;;;;;;;-0.46;100.00;97056.81;4987668;28;20168;-61
2021/12/01 04:59:10;;;;;;;1.50;0.85;;;;;;;-0.75;100.00;97079.91;4986974;28;20054;-65
2021/12/01 05:01:56;;;;;;;3.22;1.33;;;;;;;-0.62;100.00;97064.94;4987630;28;20115;-58
2021/12/01 05:04:42;;;;;;;1.70;1.10;;;;;;;-0.62;100.00;97084.03;4964032;28;20057;-60
2021/12/01 05:07:26;;;;;;;2.58;1.17;;;;;;;-0.60;100.00;97071.81;5001012;28;20101;-60
2021/12/01 05:10:12;;;;;;;5.40;1.20;;;;;;;-0.56;100.00;97055.28;4987439;28;20060;-62
2021/12/01 05:12:57;;;;;;;2.35;0.90;;;;;;;-0.50;100.00;97094.19;4987468;28;20517;-63
2021/12/01 05:15:41;;;;;;;1.77;0.85;;;;;;;-0.46;100.00;97087.16;4987131;28;20058;-62
2021/12/01 05:18:26;;;;;;;2.15;1.10;;;;;;;-0.27;100.00;97078.94;4985873;28;20579;-63
2021/12/01 05:21:12;;;;;;;2.88;1.13;;;;;;;-0.27;100.00;97101.53;4987763;28;20436;-60
2021/12/01 05:23:57;;;;;;;2.80;1.13;;;;;;;-0.26;100.00;97082.41;4984953;28;20124;-62
2021/12/01 05:26:42;;;;;;;2.92;1.10;;;;;;;-0.22;100.00;97095.34;4985901;28;20207;-61
2021/12/01 05:29:28;;;;;;;1.88;1.13;;;;;;;-0.43;100.00;97082.75;4986780;28;20065;-63
2021/12/01 05:32:13;;;;;;;3.53;1.20;;;;;;;-0.54;100.00;97092.53;4984644;28;20105;-67
2021/12/01 05:34:58;;;;;;;2.58;1.00;;;;;;;-0.67;100.00;97111.84;4984744;28;20057;-63
2021/12/01 05:37:43;;;;;;;1.45;0.98;;;;;;;-0.67;100.00;97103.19;4985991;28;20048;-59
2021/12/01 05:40:27;;;;;;;1.80;1.00;;;;;;;-0.55;100.00;97095.16;4987518;28;20564;-59
2021/12/01 05:43:12;;;;;;;1.83;1.20;;;;;;;-0.55;100.00;97116.81;4983996;28;20057;-60
2021/12/01 05:45:56;;;;;;;2.00;0.90;;;;;;;-0.54;100.00;97115.94;4973197;28;20797;-54
2021/12/01 05:48:41;;;;;;;5.18;1.63;;;;;;;-0.80;100.00;97112.97;4985453;28;20061;-59
2021/12/01 05:51:27;;;;;;;2.75;1.33;;;;;;;-0.75;100.00;97118.94;4987060;28;20431;-55
2021/12/01 05:54:11;;;;;;;;;;;;;;;-0.56;100.00;97119.44;4987527;28;20053;-60
2021/12/01 05:56:55;;;;;;;2.65;1.35;;;;;;;-0.57;100.00;97121.22;4985138;28;20035;-61
2021/12/01 05:59:40;;;;;;;3.10;1.48;;;;;;;-0.57;100.00;97113.41;4987906;28;20057;-52
2021/12/01 06:02:24;;;;;;;4.00;1.60;;;;;;;-0.56;100.00;97117.72;4984318;28;20077;-59
2021/12/01 06:05:09;;;;;;;6.60;1.92;;;;;;;-0.43;100.00;97131.34;4990670;28;20053;-57
2021/12/01 06:07:55;;;;;;;3.35;1.88;;;;;;;-0.35;100.00;97132.06;4987278;28;20101;-57
2021/12/01 06:10:41;;;;;;;3.15;1.40;;;;;;;-0.32;100.00;97138.06;4953878;28;20069;-56
2021/12/01 06:13:26;;;;;;;3.00;1.35;;;;;;;-0.70;100.00;97129.25;4968604;28;20542;-60
2021/12/01 06:16:10;;;;;;;3.35;1.70;;;;;;;-0.61;100.00;97139.50;4979777;28;20526;-60
2021/12/01 06:18:55;;;;;;;4.13;2.00;;;;;;;-0.51;100.00;97143.66;4981396;28;20433;-57
2021/12/01 06:21:40;;;;;;;4.03;1.60;;;;;;;-0.37;100.00;97142.50;4965644;28;20117;-58
2021/12/01 06:24:25;;;;;;;2.17;1.38;;;;;;;-0.34;100.00;97155.47;4984578;28;20061;-55
2021/12/01 06:27:09;;;;;;;1.77;1.10;;;;;;;-0.40;100.00;97146.88;4986630;28;20525;-57
2021/12/01 06:29:55;;;;;;;2.00;0.90;;;;;;;-0.58;100.00;97157.66;4985894;28;20100;-57
2021/12/01 06:32:40;;;;;;;3.60;1.20;;;;;;;-0.43;100.00;97158.22;4984751;28;20057;-58
2021/12/01 06:35:24;;;;;;;2.85;1.10;;;;;;;-0.47;100.00;97169.56;4980154;28;20162;-60
2021/12/01 06:38:08;;;;;;;3.42;1.25;;;;;;;-0.42;100.00;97159.97;4986428;28;20520;-60
2021/12/01 06:40:53;;;;;;;4.47;1.35;;;;;;;-0.50;100.00;97155.75;4983723;28;20057;-54
2021/12/01 06:43:38;;;;;;;2.72;1.35;;;;;;;-0.42;100.00;97159.09;4986923;28;20104;-55
2021/12/01 06:46:23;;;;;;;5.10;1.55;;;;;;;-0.58;100.00;97166.31;4985876;28;20517;-55
2021/12/01 06:49:08;;;;;;;1.98;1.20;;;;;;;-0.41;100.00;97176.41;4984825;28;20096;-64
2021/12/01 06:51:53;;;;;;;4.30;1.60;;;;;;;-0.42;100.00;97175.56;4969651;28;20154;-57
2021/12/01 06:54:38;;;;;;;2.50;1.52;;;;;;;-0.51;100.00;97180.09;4984879;28;20056;-67
2021/12/01 06:57:23;;;;;;;3.90;1.38;;;;;;;-0.36;100.00;97178.03;4997348;28;20541;-66
2021/12/01 07:00:11;;;;;;;5.80;1.40;;;;;;;-0.15;100.00;97189.78;4982466;28;20096;-60
2021/12/01 07:02:57;;;;;;;5.70;1.10;;;;;;;-0.26;100.00;97189.13;4983254;28;20134;-60
2021/12/01 07:05:41;;;;;;;2.53;1.27;;;;;;;-0.18;100.00;97185.50;4999527;28;20053;-56
2021/12/01 07:08:27;;;;;;;2.80;1.15;;;;;;;-0.12;100.00;97197.53;4984481;28;20047;-65
2021/12/01 07:11:11;;;;;;;;;;;;;;;-0.15;100.00;97195.84;4990568;28;20057;-58
2021/12/01 07:13:56;;;;;;;2.65;1.15;;;;;;;-0.09;100.00;97208.75;4988253;28;20393;-58
2021/12/01 07:16:41;;;;;;;;;;;;;;;-0.02;100.00;97210.38;4987135;28;20053;-59
2021/12/01 07:19:25;;;;;;;2.30;1.13;;;;;;;-0.28;100.00;97206.50;4987185;28;19928;-55
2021/12/01 07:22:11;;;;;;;2.67;1.27;;;;;;;-0.26;100.00;97209.97;5002211;28;20521;-55
2021/12/01 07:24:55;;;;;;;3.85;1.25;;;;;;;-0.21;100.00;97221.13;4985963;28;20116;-56
2021/12/01 07:27:40;;;;;;;3.30;1.02;;;;;;;0.09;100.00;97212.75;4987372;28;20418;-62
2021/12/01 07:30:25;;;;;;;3.45;1.20;;;;;;;0.21;100.00;97217.72;4988797;28;20112;-57
2021/12/01 07:33:09;;;;;;;3.67;1.30;;;;;;;0.05;100.00;97214.53;4986269;28;20124;-58
2021/12/01 07:35:54;;;;;;;2.92;1.30;;;;;;;-0.13;100.00;97204.50;4985369;28;20485;-56
2021/12/01 07:38:38;;;;;;;2.03;1.15;;;;;;;-0.44;100.00;97220.69;4985924;28;20153;-54
2021/12/01 07:41:23;;;;;;;2.58;1.30;;;;;;;0.01;100.00;97228.50;4986251;28;20418;-56
2021/12/01 07:44:08;;;;;;;4.57;1.70;;;;;;;-0.18;100.00;97228.91;4986690;28;20788;-56
2021/12/01 07:46:53;;;;;;;2.38;1.15;;;;;;;-0.19;100.00;97228.03;4988648;28;20112;-58
2021/12/01 07:49:40;;;;;;;3.63;1.20;;;;;;;-0.03;100.00;97249.44;4972995;28;20117;-58
2021/12/01 07:52:24;;;;;;;2.17;1.33;;;;;;;0.12;100.00;97249.16;4986304;28;20061;-62
2021/12/01 07:55:09;;;;;;;3.38;1.40;;;;;;;0.23;100.00;97251.53;4986522;28;20053;-55
2021/12/01 07:57:53;;;;;;;2.53;1.05;;;;;;;-0.01;100.00;97261.53;4987360;28;20112;-57
2021/12/01 08:00:38;;;;;;;2.08;1.08;;;;;;;0.03;100.00;97257.13;4992110;28;20526;-60
2021/12/01 08:03:23;;;;;;;4.85;1.15;;;;;;;-0.21;100.00;97242.84;4994506;28;20077;-54
2021/12/01 08:06:08;;;;;;;2.50;1.20;;;;;;;0.13;100.00;97261.28;4987589;28;20065;-53
2021/12/01 08:08:53;;;;;;;6.38;1.20;;;;;;;0.27;100.00;97269.69;4999212;28;20104;-52
2021/12/01 08:11:38;;;;;;;1.65;0.93;;;;;;;0.15;100.00;97259.50;4986176;28;20085;-64
2021/12/01 08:14:24;;;;;;;2.10;1.05;;;;;;;0.28;100.00;97257.53;5001406;28;20053;-59
2021/12/01 08:17:08;;;;;;;4.35;1.20;;;;;;;0.29;100.00;97257.50;4985194;28;20188;-56
2021/12/01 08:19:53;;;;;;;2.15;1.00;;;;;;;0.48;100.00;97260.56;4985478;28;20054;-55
2021/12/01 08:22:38;;;;;;;2.05;1.08;;;;;;;0.38;100.00;97266.84;4987773;28;20053;-56
2021/12/01 08:25:24;;;;;;;3.13;1.40;;;;;;;0.44;100.00;97269.34;4986715;28;20093;-56
2021/12/01 08:28:08;;;;;;;2.28;1.40;;;;;;;-0.01;100.00;97264.16;4985926;28;20120;-56
2021/12/01 08:30:52;;;;;;;3.65;1.30;;;;;;;0.15;100.00;97272.53;4984223;28;20057;-63
2021/12/01 08:33:37;;;;;;;5.18;1.83;;;;;;;0.13;100.00;97263.03;4986038;28;20096;-58
2021/12/01 08:36:21;;;;;;;5.10;1.30;;;;;;;0.17;100.00;97249.06;4987081;28;20513;-57
2021/12/01 08:39:06;;;;;;;2.20;1.13;;;;;;;0.39;100.00;97251.19;4989399;28;20076;-61
2021/12/01 08:41:51;;;;;;;1.45;0.82;;;;;;;0.38;100.00;97264.25;4985589;28;20149;-63
2021/12/01 08:44:37;;;;;;;2.58;1.17;;;;;;;0.19;100.00;97268.13;4979910;28;20072;-66
2021/12/01 08:47:29;;;;;;;3.60;1.30;;;;;;;0.27;100.00;97271.44;4987405;28;20177;-62
2021/12/01 08:50:15;;;;;;;3.35;1.40;;;;;;;0.42;100.00;97271.97;4987740;28;20081;-64
2021/12/01 08:53:00;;;;;;;3.55;2.08;;;;;;;0.36;100.00;97281.66;4988958;28;20058;-60
2021/12/01 08:55:45;;;;;;;3.13;1.55;;;;;;;0.37;100.00;97273.84;4989227;28;20841;-57
2021/12/01 08:58:30;;;;;;;2.25;1.30;;;;;;;0.05;100.00;97281.41;4987945;28;20118;-61
2021/12/01 09:01:15;;;;;;;3.05;1.50;;;;;;;0.25;100.00;97281.88;4985438;28;20049;-62
2021/12/01 09:04:01;;;;;;;4.72;1.42;;;;;;;0.15;100.00;97277.72;4998226;28;20080;-68
2021/12/01 09:06:48;;;;;;;4.03;1.58;;;;;;;0.25;100.00;97278.41;4986106;28;20134;-61
2021/12/01 09:09:33;;;;;;;2.10;1.65;;;;;;;0.28;100.00;97280.97;4985764;28;20129;-58
2021/12/01 09:12:18;;;;;;;;;;;;;;;0.20;100.00;97282.88;4986344;28;20050;-64
2021/12/01 09:15:03;;;;;;;3.63;1.40;;;;;;;0.16;100.00;97283.81;4990138;28;20066;-60
2021/12/01 09:17:48;;;;;;;3.55;1.38;;;;;;;0.03;100.00;97282.34;4985484;28;20101;-66
2021/12/01 09:20:34;;;;;;;3.05;1.70;;;;;;;0.30;100.00;97280.03;4963606;28;20065;-66
2021/12/01 09:23:19;;;;;;;4.05;1.77;;;;;;;0.01;100.00;97291.00;4981507;28;20065;-64
2021/12/01 09:26:05;;;;;;;2.50;1.42;;;;;;;0.18;100.00;97290.69;4987465;28;20137;-63
2021/12/01 09:28:50;;;;;;;3.92;1.63;;;;;;;0.31;100.00;97300.00;4998345;28;20057;-65
2021/12/01 09:31:36;;;;;;;3.03;1.20;;;;;;;0.19;100.00;97304.59;4987082;28;20141;-66
2021/12/01 09:34:24;;;;;;;3.72;1.60;;;;;;;0.07;100.00;97305.66;4981197;28;20509;-63
2021/12/01 09:37:08;;;;;;;3.92;1.92;;;;;;;-0.03;100.00;97301.53;4983993;28;20064;-67
2021/12/01 09:39:54;;;;;;;5.03;1.73;;;;;;;0.18;100.00;97303.72;4987952;28;20048;-58
2021/12/01 09:42:45;;;;;;;4.78;1.63;;;;;;;0.48;100.00;97305.75;4965885;28;20465;-63
2021/12/01 09:45:30;;;;;;;4.47;1.42;;;;;;;0.26;100.00;97314.00;4953253;28;20089;-60
2021/12/01 09:48:15;;;;;;;;;;;;;;;0.26;100.00;97314.84;4984026;28;20442;-59
2021/12/01 09:51:00;;;;;;;2.95;1.70;;;;;;;0.25;100.00;97313.16;4986538;28;19925;-63
2021/12/01 09:53:46;;;;;;;3.75;1.70;;;;;;;0.52;100.00;97314.34;4986219;28;20476;-60
2021/12/01 09:56:33;;;;;;;5.20;1.75;;;;;;;0.48;100.00;97316.19;4986325;28;20137;-60
2021/12/01 09:59:19;;;;;;;3.92;1.63;;;;;;;0.20;100.00;97322.81;4972294;28;20112;-63
2021/12/01 10:02:04;;;;;;;2.78;1.70;;;;;;;0.23;100.00;97327.94;4986504;28;20803;-67
2021/12/01 10:04:49;;;;;;;4.32;1.88;;;;;;;0.08;100.00;97323.88;4992117;28;20112;-63
2021/12/01 10:07:35;;;;;;;3.67;1.90;;;;;;;-0.09;100.00;97320.72;4992967;28;20430;-62
2021/12/01 10:10:20;;;;;;;4.85;2.15;;;;;;;0.15;100.00;97316.81;4967283;28;20053;-66
2021/12/01 10:13:08;;;;;;;3.53;1.90;;;;;;;0.29;100.00;97311.34;4969375;28;20057;-67
2021/12/01 10:15:54;;;;;;;6.03;2.53;;;;;;;0.23;100.00;97322.72;4967907;28;20766;-61
2021/12/01 10:18:47;;;;;;;4.60;2.50;;;;;;;0.20;100.00;97327.16;4990888;28;20056;-66
2021/12/01 10:21:33;;;;;;;3.97;2.22;;;;;;;0.22;100.00;97333.16;4985169;28;20049;-60
2021/12/01 10:24:34;;;;;;;5.10;2.08;;;;;;;0.17;100.00;97326.31;4984255;28;20053;-63
2021/12/01 10:27:20;;;;;;;4.75;2.28;;;;;;;0.29;100.00;97335.66;4995713;28;20101;-67
2021/12/01 10:30:06;;;;;;;;;;;;;;;0.31;100.00;97327.81;4982926;28;20053;-65
2021/12/01 10:33:17;;;;;;;4.40;2.20;;;;;;;0.55;100.00;97325.56;4983089;28;19924;-63
2021/12/01 10:36:07;;;;;;;4.10;1.63;;;;;;;0.26;100.00;97335.69;4982913;28;20081;-65
2021/12/01 10:39:06;;;;;;;3.17;2.10;;;;;;;-0.16;100.00;97332.13;4971322;28;20049;-66
2021/12/01 10:41:50;;;;;;;4.53;1.60;;;;;;;-0.15;100.00;97336.44;4983185;28;20539;-64
2021/12/01 10:44:36;;;;;;;3.55;1.88;;;;;;;-0.12;100.00;97333.78;4983043;28;20134;-65
2021/12/01 10:47:22;;;;;;;3.63;2.10;;;;;;;-0.14;100.00;97324.28;4985336;28;20088;-65
2021/12/01 10:50:13;;;;;;;3.63;1.95;;;;;;;-0.24;100.00;97343.53;4983449;28;20411;-72
2021/12/01 10:53:09;;;;;;;5.85;1.60;;;;;;;-0.09;100.00;97335.47;4977062;28;20124;-72
2021/12/01 10:55:57;;;;;;;7.22;2.40;;;;;;;-0.26;100.00;97350.53;4987585;28;20550;-67
2021/12/01 10:58:42;;;;;;;3.10;1.77;;;;;;;-0.45;100.00;97330.88;4984305;28;20076;-65
2021/12/01 11:01:27;;;;;;;4.85;2.03;;;;;;;-0.42;100.00;97343.84;4985747;28;20061;-66
2021/12/01 11:04:12;;;;;;;3.35;1.70;;;;;;;-0.40;100.00;97345.53;4986485;28;20557;-66
2021/12/01 11:06:56;;;;;;;3.78;2.03;;;;;;;-0.40;100.00;97331.66;4983172;28;20504;-67
2021/12/01 11:09:40;;;;;;;5.45;2.15;;;;;;;-0.11;100.00;97342.47;4996827;28;20062;-65
2021/12/01 11:12:29;;;;;;;4.68;2.30;;;;;;;0.00;100.00;97337.94;4983349;28;20533;-63
2021/12/01 11:15:19;;;;;;;5.82;2.30;;;;;;;0.16;100.00;97343.72;4987067;28;20112;-64
2021/12/01 11:18:07;;;;;;;4.70;1.92;;;;;;;0.14;100.00;97343.75;4984310;28;20057;-67
2021/12/01 11:21:07;;;;;;;4.50;2.38;;;;;;;0.37;100.00;97354.59;4982088;28;20101;-70
2021/12/01 11:24:00;;;;;;;3.75;2.33;;;;;;;0.47;100.00;97353.53;4971202;28;20057;-67
2021/12/01 11:26:45;;;;;;;4.03;1.90;;;;;;;0.21;100.00;97334.06;4970357;28;20241;-66
2021/12/01 11:29:30;;;;;;;2.53;1.77;;;;;;;-0.26;100.00;97340.13;4981698;28;20553;-67
2021/12/01 11:32:15;;;;;;;4.70;1.80;;;;;;;-0.32;100.00;97335.00;4997542;28;20806;-62
2021/12/01 11:34:59;;;;;;;3.30;1.80;;;;;;;-0.48;100.00;97349.13;4980399;28;20235;-66
2021/12/01 11:37:45;;;;;;;3.90;1.90;;;;;;;-0.40;100.00;97337.72;4983960;28;20125;-58
2021/12/01 11:40:32;;;;;;;3.05;1.70;;;;;;;-0.32;100.00;97342.78;4987397;28;20053;-59
2021/12/01 11:43:21;;;;;;;3.63;1.63;;;;;;;-0.33;100.00;97346.28;4983917;28;20085;-64
2021/12/01 11:46:07;;;;;;;6.97;1.90;;;;;;;-0.41;100.00;97363.78;4986791;28;20061;-63
2021/12/01 11:48:56;;;;;;;4.82;1.48;;;;;;;-0.39;100.00;97362.03;4985130;28;20410;-59
2021/12/01 11:51:48;;;;;;;4.72;1.95;;;;;;;-0.30;100.00;97357.53;4987150;28;20057;-65
2021/12/01 11:54:42;;;;;;;7.00;2.67;;;;;;;-0.18;100.00;97361.66;4986294;28;20104;-67
2021/12/01 11:57:39;;;;;;;4.10;1.98;;;;;;;-0.23;100.00;97364.34;4985556;28;20872;-64
2021/12/01 12:00:44;;;;;;;2.92;1.42;;;;;;;-0.39;100.00;97364.63;4987718;28;20072;-67
2021/12/01 12:03:29;;;;;;;4.05;1.83;;;;;;;-0.54;100.00;97375.25;4986824;28;20057;-65
2021/12/01 12:06:26;;;;;;;4.57;1.70;;;;;;;-0.56;100.00;97382.22;4983180;28;20056;-64
2021/12/01 12:09:14;;;;;;;4.63;2.08;;;;;;;-0.43;100.00;97387.22;4986178;28;20049;-65
2021/12/01 12:11:58;;;;;;;3.60;1.80;;;;;;;-0.47;100.00;97390.75;4983998;28;20061;-65
2021/12/01 12:14:46;;;;;;;4.40;2.33;;;;;;;-0.48;100.00;97394.25;4987354;28;20112;-62
2021/12/01 12:17:35;;;;;;;3.70;1.52;;;;;;;-0.51;100.00;97378.66;4998878;28;20053;-64
2021/12/01 12:20:28;;;;;;;4.97;1.42;;;;;;;-0.51;100.00;97406.44;4995693;28;20156;-68
2021/12/01 12:23:16;;;;;;;4.53;1.70;;;;;;;-0.51;100.00;97415.09;4985116;28;20124;-70
2021/12/01 12:26:01;;;;;;;3.42;1.70;;;;;;;-0.50;100.00;97410.75;4985153;28;20066;-70
2021/12/01 12:28:45;;;;;;;5.05;1.40;;;;;;;-0.45;100.00;97411.53;4986236;28;20053;-64
2021/12/01 12:31:31;;;;;;;7.78;1.88;;;;;;;-0.40;100.00;97420.13;4983735;28;20141;-63
2021/12/01 12:34:23;;;;;;;3.67;1.40;;;;;;;-0.51;100.00;97409.88;4974275;28;20049;-65
2021/12/01 12:37:21;;;;;;;4.45;1.60;;;;;;;-0.61;100.00;97423.94;4986973;28;20053;-66
2021/12/01 12:40:10;;;;;;;2.70;1.50;;;;;;;-0.67;100.00;97429.19;4971197;28;20522;-62
2021/12/01 12:43:24;;;;;;;3.05;1.30;;;;;;;-0.70;100.00;97439.63;5001302;28;20061;-61
2021/12/01 12:46:12;;;;;;;3.28;1.90;;;;;;;-0.70;100.00;97444.00;4986316;28;20470;-62
2021/12/01 12:48:57;;;;;;;6.85;1.40;;;;;;;-0.60;100.00;97449.06;4986455;28;20733;-58
2021/12/01 12:51:42;;;;;;;3.60;1.30;;;;;;;-0.60;100.00;97435.19;4986149;28;20081;-64
2021/12/01 12:54:27;;;;;;;3.92;1.50;;;;;;;-0.69;100.00;97457.00;4984715;28;20133;-63
2021/12/01 12:57:13;;;;;;;2.20;1.35;;;;;;;-0.65;100.00;97457.81;4995920;28;20403;-66
2021/12/01 13:00:28;;;;;;;3.83;1.60;;;;;;;-0.56;100.00;97455.06;4969580;28;20100;-65
2021/12/01 13:03:27;;;;;;;4.30;1.42;;;;;;;-0.65;100.00;97461.28;4985874;28;20236;-66
2021/12/01 13:06:27;;;;;;;4.32;1.65;;;;;;;-0.65;100.00;97466.47;4985632;28;20202;-66